Station Historical Data
Daily Summary for February 13, 2019 Units:  English    Metric   Both
« Previous Day
Next Day »
Daily Weekly Monthly Yearly Custom
  High: Low: Average:
Temperature: TemperatureF °F 31.8 °F 40.9 °F
Dew Point: DewpointF °F 24.5 °F 27.9 °F
Humidity: Humidity % 36 % 62 %
Wind Speed: WindSpeedMPH mph 0.0 mph 3 mph
Wind Gust: WindSpeedGustMPH mph - -
Wind:- - SW
Pressure: PressureIn in 30.12 in -
Precipitation: 0.00 in    
Historical Graphs
 
 
Tabular Data for February 13, 2019
Time Temperature Dew Point Pressure Wind Wind Speed Wind Gust Humidity Rainfall Rate (Hourly) solar Conditions
TemperatureF °F DewpointF °F PressureIn in Calm     Humidity % HourlyPrecipIn in SolarRadiationWatts/m^2 W/m2 Conditions
00:04 37.5 °F 31.3 °F 30.14 in South 2.3 mph 1.4 mph 78 % 0.00 in 0.00 W/m2 RA
00:09 37.4 °F 31.5 °F 30.14 in WSW 2.3 mph 0.4 mph 79 % 0.00 in 0.00 W/m2 RA
00:14 37.3 °F 31.4 °F 30.14 in WSW 2.3 mph 1.0 mph 79 % 0.00 in 0.00 W/m2 OVC
00:19 37.3 °F 31.4 °F 30.15 in WSW 3.5 mph 1.6 mph 79 % 0.00 in 0.00 W/m2 OVC
00:24 37.3 °F 31.1 °F 30.15 in West 4.6 mph 2.5 mph 78 % 0.00 in 0.00 W/m2 OVC
00:29 37.3 °F 31.1 °F 30.14 in SSW 3.5 mph 1.9 mph 78 % 0.00 in 0.00 W/m2 OVC
00:34 37.2 °F 31.0 °F 30.14 in WSW 3.5 mph 2.6 mph 78 % 0.00 in 0.00 W/m2 OVC
00:39 37.1 °F 31.2 °F 30.14 in WSW 3.5 mph 2.2 mph 79 % 0.00 in 0.00 W/m2 OVC
00:44 37.0 °F 31.1 °F 30.14 in WSW 3.5 mph 2.1 mph 79 % 0.00 in 0.00 W/m2 OVC
00:49 36.8 °F 30.9 °F 30.14 in WSW 2.3 mph 0.5 mph 79 % 0.00 in 0.00 W/m2 OVC
00:54 36.7 °F 30.8 °F 30.15 in Calm     79 % 0.00 in 0.00 W/m2 OVC
00:59 36.6 °F 30.7 °F 30.15 in WSW 3.0 mph 1.5 mph 79 % 0.00 in 0.00 W/m2 OVC
01:04 36.4 °F 30.5 °F 30.16 in WSW 1.2 mph   79 % 0.00 in 0.00 W/m2 OVC
01:09 36.4 °F 30.5 °F 30.16 in Calm     79 % 0.00 in 0.00 W/m2 OVC
01:14 36.2 °F 30.3 °F 30.16 in Calm     79 % 0.00 in 0.00 W/m2 OVC
01:19 36.1 °F 30.2 °F 30.16 in Calm     79 % 0.00 in 0.00 W/m2 OVC
01:24 36.1 °F 30.2 °F 30.16 in Calm     79 % 0.00 in 0.00 W/m2 OVC
01:29 36.0 °F 30.1 °F 30.16 in SW 2.0 mph 0.4 mph 79 % 0.00 in 0.00 W/m2 OVC
01:34 35.9 °F 30.0 °F 30.16 in SW 3.5 mph 1.6 mph 79 % 0.00 in 0.00 W/m2 OVC
01:39 35.8 °F 29.9 °F 30.17 in WSW 3.5 mph 1.8 mph 79 % 0.00 in 0.00 W/m2 OVC
01:44 35.8 °F 29.6 °F 30.17 in SW 2.3 mph 1.5 mph 78 % 0.00 in 0.00 W/m2 OVC
01:49 35.7 °F 29.5 °F 30.17 in SW 2.3 mph 1.5 mph 78 % 0.00 in 0.00 W/m2 OVC
01:54 35.6 °F 29.4 °F 30.17 in SW 2.3 mph 0.6 mph 78 % 0.00 in 0.00 W/m2 OVC
01:59 35.6 °F 29.4 °F 30.17 in SW 2.3 mph 1.1 mph 78 % 0.00 in 0.00 W/m2 OVC
02:04 35.5 °F 29.3 °F 30.18 in WSW 1.2 mph 0.2 mph 78 % 0.00 in 0.00 W/m2 OVC
02:09 35.5 °F 29.3 °F 30.18 in SW 2.0 mph 0.7 mph 78 % 0.00 in 0.00 W/m2 OVC
02:15 35.5 °F 29.0 °F 30.18 in SW 2.3 mph 0.9 mph 77 % 0.00 in 0.00 W/m2 OVC
02:19 35.4 °F 28.9 °F 30.18 in SW 2.3 mph 0.8 mph 77 % 0.00 in 0.00 W/m2 OVC
02:24 35.4 °F 29.2 °F 30.18 in Calm     78 % 0.00 in 0.00 W/m2 OVC
02:29 35.4 °F 29.2 °F 30.18 in Calm     78 % 0.00 in 0.00 W/m2 OVC
02:34 35.4 °F 28.9 °F 30.18 in Calm     77 % 0.00 in 0.00 W/m2 OVC
02:39 35.3 °F 28.8 °F 30.18 in Calm     77 % 0.00 in 0.00 W/m2 OVC
02:44 35.3 °F 29.1 °F 30.18 in SW 2.3 mph 0.7 mph 78 % 0.00 in 0.00 W/m2 OVC
02:49 35.2 °F 29.0 °F 30.18 in SW 2.3 mph 1.5 mph 78 % 0.00 in 0.00 W/m2 OVC
02:54 35.1 °F 28.9 °F 30.18 in WSW 2.3 mph 1.5 mph 78 % 0.00 in 0.00 W/m2 OVC
02:59 35.0 °F 28.8 °F 30.18 in WSW 3.5 mph 2.0 mph 78 % 0.00 in 0.00 W/m2 OVC
03:04 34.9 °F 29.0 °F 30.18 in WSW 3.5 mph 2.3 mph 79 % 0.00 in 0.00 W/m2 OVC
03:09 34.8 °F 29.0 °F 30.18 in SW 4.0 mph 2.4 mph 79 % 0.00 in 0.00 W/m2 OVC
03:14 34.7 °F 29.2 °F 30.18 in WSW 3.5 mph 2.3 mph 80 % 0.00 in 0.00 W/m2 OVC
03:19 34.6 °F 29.4 °F 30.18 in WSW 3.5 mph 2.5 mph 81 % 0.00 in 0.00 W/m2 OVC
03:24 34.5 °F 28.7 °F 30.18 in WSW 4.0 mph 2.7 mph 79 % 0.00 in 0.00 W/m2 OVC
03:29 34.5 °F 28.7 °F 30.18 in WSW 3.5 mph 2.9 mph 79 % 0.00 in 0.00 W/m2 OVC
03:34 34.5 °F 28.7 °F 30.18 in WSW 4.0 mph 3.0 mph 79 % 0.00 in 0.00 W/m2 OVC
03:39 34.4 °F 28.2 °F 30.18 in WSW 4.0 mph 3.0 mph 78 % 0.00 in 0.00 W/m2 OVC
03:44 34.4 °F 28.2 °F 30.18 in WSW 3.5 mph 2.1 mph 78 % 0.00 in 0.00 W/m2 OVC
03:49 34.4 °F 27.9 °F 30.18 in SW 3.5 mph 1.6 mph 77 % 0.00 in 0.00 W/m2 OVC
03:54 34.4 °F 27.9 °F 30.18 in WSW 3.5 mph 0.3 mph 77 % 0.00 in 0.00 W/m2 OVC
03:59 34.3 °F 27.8 °F 30.18 in WSW 3.5 mph 1.5 mph 77 % 0.00 in 0.00 W/m2 OVC
04:04 34.3 °F 27.8 °F 30.18 in WSW 2.3 mph 1.0 mph 77 % 0.00 in 0.00 W/m2 OVC
04:09 34.2 °F 27.4 °F 30.18 in SW 3.0 mph 1.9 mph 76 % 0.00 in 0.00 W/m2 OVC
04:14 34.1 °F 27.3 °F 30.19 in SW 2.3 mph 1.6 mph 76 % 0.00 in 0.00 W/m2 OVC
04:19 34.0 °F 27.2 °F 30.19 in WSW 2.3 mph 1.5 mph 76 % 0.00 in 0.00 W/m2 OVC
04:24 34.0 °F 27.2 °F 30.19 in WSW 2.3 mph 0.3 mph 76 % 0.00 in 0.00 W/m2 OVC
04:29 33.9 °F 27.4 °F 30.19 in WSW 1.2 mph 0.7 mph 77 % 0.00 in 0.00 W/m2 OVC
04:34 33.8 °F 27.4 °F 30.19 in Calm     77 % 0.00 in 0.00 W/m2 OVC
04:39 33.8 °F 27.7 °F 30.19 in Calm     78 % 0.00 in 0.00 W/m2 OVC
04:44 33.7 °F 27.6 °F 30.19 in Calm     78 % 0.00 in 0.00 W/m2 OVC
04:49 33.6 °F 27.8 °F 30.19 in SW 1.2 mph 0.2 mph 79 % 0.00 in 0.00 W/m2 OVC
04:54 33.5 °F 27.7 °F 30.19 in Calm   0.3 mph 79 % 0.00 in 0.00 W/m2 OVC
04:59 33.5 °F 28.0 °F 30.19 in Calm     80 % 0.00 in 0.00 W/m2 OVC
05:04 33.4 °F 27.9 °F 30.20 in SW 1.2 mph   80 % 0.00 in 0.00 W/m2 OVC
05:09 33.3 °F 28.1 °F 30.20 in Calm     81 % 0.00 in 0.00 W/m2 OVC
05:14 33.3 °F 28.1 °F 30.20 in Calm     81 % 0.00 in 0.00 W/m2 OVC
05:19 33.2 °F 28.0 °F 30.20 in West 2.3 mph 1.0 mph 81 % 0.00 in 0.00 W/m2 OVC
05:24 33.1 °F 28.2 °F 30.20 in West 1.0 mph 0.8 mph 82 % 0.00 in 0.00 W/m2 OVC
05:29 33.1 °F 27.9 °F 30.20 in WSW 3.5 mph 1.8 mph 81 % 0.00 in 0.00 W/m2 OVC
05:34 33.0 °F 28.1 °F 30.21 in WSW 3.5 mph 2.9 mph 82 % 0.00 in 0.00 W/m2 OVC
05:39 32.9 °F 28.0 °F 30.21 in WSW 3.5 mph 2.8 mph 82 % 0.00 in 0.00 W/m2 OVC
05:44 32.6 °F 27.7 °F 30.22 in West 3.5 mph 2.9 mph 82 % 0.00 in 0.00 W/m2 OVC
05:49 32.5 °F 27.6 °F 30.22 in SW 4.6 mph 2.5 mph 82 % 0.00 in 0.00 W/m2 OVC
05:54 32.4 °F 27.5 °F 30.22 in WSW 3.5 mph 2.1 mph 82 % 0.00 in 0.00 W/m2 OVC
05:59 32.3 °F 27.4 °F 30.22 in West 3.5 mph 2.1 mph 82 % 0.00 in 0.00 W/m2 OVC
06:04 32.2 °F 27.3 °F 30.23 in WSW 3.5 mph 1.9 mph 82 % 0.00 in 0.00 W/m2 OVC
06:09 32.2 °F 27.3 °F 30.23 in WSW 3.5 mph 1.6 mph 82 % 0.00 in 0.00 W/m2 OVC
06:14 32.1 °F 27.2 °F 30.23 in WSW 4.0 mph 2.0 mph 82 % 0.00 in 0.00 W/m2 OVC
06:19 32.0 °F 27.1 °F 30.23 in WSW 3.5 mph 2.5 mph 82 % 0.00 in 0.00 W/m2 OVC
06:24 32.0 °F 27.1 °F 30.23 in WSW 3.5 mph 2.0 mph 82 % 0.00 in 0.00 W/m2 OVC
06:29 31.9 °F 27.0 °F 30.23 in WSW 3.5 mph 1.5 mph 82 % 0.00 in 0.00 W/m2 OVC
06:34 31.8 °F 26.6 °F 30.23 in WSW 3.5 mph 1.8 mph 81 % 0.00 in 0.00 W/m2 OVC
06:39 31.8 °F 26.6 °F 30.23 in WSW 3.5 mph 1.6 mph 81 % 0.00 in 0.00 W/m2 OVC
06:44 31.8 °F 26.6 °F 30.24 in WSW 3.5 mph 2.0 mph 81 % 0.00 in 7.00 W/m2 OVC
06:49 31.8 °F 26.6 °F 30.24 in WSW 3.5 mph 1.7 mph 81 % 0.00 in 9.00 W/m2 OVC
06:54 31.8 °F 26.3 °F 30.24 in SW 3.5 mph 1.3 mph 80 % 0.00 in 12.00 W/m2 OVC
06:59 31.9 °F 26.4 °F 30.24 in WSW 3.5 mph 2.1 mph 80 % 0.00 in 14.00 W/m2 OVC
07:04 31.9 °F 26.4 °F 30.24 in SW 2.3 mph 1.4 mph 80 % 0.00 in 16.00 W/m2 OVC
07:09 32.0 °F 26.5 °F 30.24 in SW 2.3 mph 1.4 mph 80 % 0.00 in 18.00 W/m2 OVC
07:14 32.0 °F 26.2 °F 30.25 in WSW 2.3 mph 1.4 mph 79 % 0.00 in 21.00 W/m2 OVC
07:19 32.2 °F 26.4 °F 30.25 in West 2.3 mph 1.3 mph 79 % 0.00 in 25.00 W/m2 OVC
07:24 32.3 °F 26.5 °F 30.25 in West 2.3 mph 1.2 mph 79 % 0.00 in 26.00 W/m2 OVC
07:29 32.4 °F 26.6 °F 30.25 in SW 3.5 mph 1.4 mph 79 % 0.00 in 28.00 W/m2 OVC
07:34 32.6 °F 26.8 °F 30.25 in Calm     79 % 0.00 in 33.00 W/m2 OVC
07:39 32.8 °F 27.0 °F 30.26 in Calm     79 % 0.00 in 32.00 W/m2 OVC
07:44 33.0 °F 27.2 °F 30.26 in WSW 2.3 mph 1.2 mph 79 % 0.00 in 37.00 W/m2 OVC
07:49 33.3 °F 27.2 °F 30.27 in WSW 3.5 mph 1.2 mph 78 % 0.00 in 37.00 W/m2 OVC
07:54 33.7 °F 27.3 °F 30.26 in WSW 3.5 mph 0.7 mph 77 % 0.00 in 49.00 W/m2 OVC
07:59 34.0 °F 27.5 °F 30.27 in WSW 2.3 mph 1.2 mph 77 % 0.00 in 49.00 W/m2 OVC
08:04 34.3 °F 27.8 °F 30.27 in WSW 3.5 mph 2.0 mph 77 % 0.00 in 62.00 W/m2 OVC
08:09 34.7 °F 28.2 °F 30.26 in West 4.6 mph 2.9 mph 77 % 0.00 in 98.00 W/m2 OVC
08:14 35.1 °F 28.3 °F 30.27 in WSW 3.5 mph 1.5 mph 76 % 0.00 in 107.00 W/m2 OVC
08:19 35.5 °F 28.4 °F 30.26 in WSW 3.5 mph 1.7 mph 75 % 0.00 in 93.00 W/m2 OVC
08:24 35.9 °F 28.4 °F 30.27 in West 3.5 mph 2.4 mph 74 % 0.00 in 120.00 W/m2 OVC
08:29 36.1 °F 28.6 °F 30.27 in WSW 3.5 mph 1.9 mph 74 % 0.00 in 255.00 W/m2 OVC
08:34 36.4 °F 28.2 °F 30.27 in West 3.5 mph 2.9 mph 72 % 0.00 in 206.00 W/m2 OVC
08:39 36.8 °F 28.3 °F 30.27 in WSW 3.5 mph 2.7 mph 71 % 0.00 in 218.00 W/m2 OVC
08:44 37.1 °F 28.6 °F 30.27 in West 3.5 mph 3.0 mph 71 % 0.00 in 172.00 W/m2 OVC
08:49 37.4 °F 27.8 °F 30.27 in West 4.0 mph 2.9 mph 68 % 0.00 in 248.00 W/m2 OVC
08:55 37.7 °F 27.0 °F 30.28 in West 8.1 mph 4.6 mph 65 % 0.00 in 292.00 W/m2 OVC
08:59 37.9 °F 27.9 °F 30.28 in WNW 5.8 mph 3.5 mph 67 % 0.00 in 279.00 W/m2 OVC
09:04 38.1 °F 27.4 °F 30.29 in NW 6.9 mph 3.7 mph 65 % 0.00 in 404.00 W/m2 OVC
09:09 38.4 °F 26.9 °F 30.29 in WNW 6.0 mph 4.0 mph 63 % 0.00 in 429.00 W/m2 OVC
09:14 38.7 °F 27.2 °F 30.29 in WNW 4.6 mph 3.2 mph 63 % 0.00 in 424.00 W/m2 OVC
09:19 39.0 °F 27.8 °F 30.28 in NW 5.8 mph 3.2 mph 64 % 0.00 in 450.00 W/m2 OVC
09:24 39.4 °F 27.1 °F 30.28 in NW 3.5 mph 2.9 mph 61 % 0.00 in 352.00 W/m2 OVC
09:29 39.8 °F 27.0 °F 30.28 in WSW 6.9 mph 3.8 mph 60 % 0.00 in 404.00 W/m2 OVC
09:34 40.1 °F 26.9 °F 30.28 in West 5.8 mph 2.9 mph 59 % 0.00 in 445.00 W/m2 OVC
09:39 40.4 °F 26.4 °F 30.28 in West 6.9 mph 5.4 mph 57 % 0.00 in 432.00 W/m2 OVC
09:44 40.5 °F 26.9 °F 30.28 in West 3.5 mph 3.3 mph 58 % 0.00 in 494.00 W/m2 OVC
09:49 40.7 °F 26.2 °F 30.28 in West 3.5 mph 3.3 mph 56 % 0.00 in 513.00 W/m2 OVC
09:54 41.1 °F 27.0 °F 30.27 in WSW 3.5 mph 3.5 mph 57 % 0.00 in 541.00 W/m2 OVC
09:59 41.5 °F 27.0 °F 30.27 in West 4.0 mph 3.3 mph 56 % 0.00 in 369.00 W/m2 OVC
10:04 41.7 °F 26.7 °F 30.27 in West 5.8 mph 2.6 mph 55 % 0.00 in 309.00 W/m2 OVC
10:09 41.7 °F 26.7 °F 30.28 in WSW 5.8 mph 4.6 mph 55 % 0.00 in 432.00 W/m2 OVC
10:14 41.7 °F 27.1 °F 30.27 in West 6.9 mph 3.1 mph 56 % 0.00 in 589.00 W/m2 OVC
10:19 41.8 °F 26.4 °F 30.27 in WSW 5.8 mph 2.6 mph 54 % 0.00 in 292.00 W/m2 OVC
10:24 42.0 °F 26.1 °F 30.27 in West 3.5 mph 3.0 mph 53 % 0.00 in 538.00 W/m2 OVC
10:29 42.2 °F 25.8 °F 30.27 in WSW 3.5 mph 2.7 mph 52 % 0.00 in 343.00 W/m2 OVC
10:34 42.4 °F 27.4 °F 30.27 in WSW 5.8 mph 3.3 mph 55 % 0.00 in 533.00 W/m2 OVC
10:39 42.7 °F 26.7 °F 30.27 in West 4.0 mph 2.7 mph 53 % 0.00 in 533.00 W/m2 OVC
10:44 43.1 °F 25.2 °F 30.27 in West 4.6 mph 3.0 mph 49 % 0.00 in 427.00 W/m2 OVC
10:49 43.2 °F 25.3 °F 30.27 in West 6.9 mph 3.0 mph 49 % 0.00 in 527.00 W/m2 OVC
10:54 43.4 °F 26.0 °F 30.27 in WSW 3.5 mph 2.4 mph 50 % 0.00 in 591.00 W/m2 OVC
10:59 43.8 °F 26.8 °F 30.26 in South 3.5 mph 2.2 mph 51 % 0.00 in 649.00 W/m2 OVC
11:04 44.1 °F 25.6 °F 30.26 in WSW 3.5 mph 2.1 mph 48 % 0.00 in 306.00 W/m2 OVC
11:09 44.3 °F 25.8 °F 30.27 in West 3.5 mph 3.3 mph 48 % 0.00 in 570.00 W/m2 OVC
11:14 44.6 °F 25.6 °F 30.26 in West 5.8 mph 2.5 mph 47 % 0.00 in 714.00 W/m2 OVC
11:19 44.9 °F 25.9 °F 30.26 in West 4.0 mph 3.3 mph 47 % 0.00 in 700.00 W/m2 OVC
11:24 45.2 °F 25.1 °F 30.25 in West 8.1 mph 2.6 mph 45 % 0.00 in 566.00 W/m2 OVC
11:29 45.4 °F 25.8 °F 30.25 in SSE 5.8 mph 2.6 mph 46 % 0.00 in 478.00 W/m2 OVC
11:34 45.6 °F 24.9 °F 30.25 in SW 6.9 mph 3.6 mph 44 % 0.00 in 649.00 W/m2 OVC
11:39 45.8 °F 24.5 °F 30.25 in West 3.5 mph 2.7 mph 43 % 0.00 in 659.00 W/m2 OVC
11:44 46.2 °F 24.9 °F 30.25 in WSW 3.5 mph 2.0 mph 43 % 0.00 in 571.00 W/m2 OVC
11:49 46.7 °F 26.5 °F 30.24 in South 5.8 mph 2.3 mph 45 % 0.00 in 643.00 W/m2 OVC
11:54 47.2 °F 26.4 °F 30.24 in SW 5.8 mph 3.4 mph 44 % 0.00 in 649.00 W/m2 OVC
11:59 47.4 °F 26.6 °F 30.23 in SSW 4.6 mph 2.8 mph 44 % 0.00 in 656.00 W/m2 OVC
12:04 47.7 °F 26.8 °F 30.23 in SW 5.8 mph 2.7 mph 44 % 0.00 in 656.00 W/m2 OVC
12:09 47.9 °F 27.6 °F 30.23 in West 6.9 mph 3.4 mph 45 % 0.00 in 654.00 W/m2 OVC
12:14 48.1 °F 26.1 °F 30.23 in WSW 5.8 mph 2.7 mph 42 % 0.00 in 654.00 W/m2 OVC
12:19 48.4 °F 27.5 °F 30.23 in West 4.0 mph 3.2 mph 44 % 0.00 in 654.00 W/m2 OVC
12:24 48.6 °F 26.5 °F 30.23 in WSW 8.1 mph 3.6 mph 42 % 0.00 in 652.00 W/m2 OVC
12:29 48.7 °F 27.7 °F 30.22 in WNW 4.6 mph 2.7 mph 44 % 0.00 in 647.00 W/m2 OVC
12:34 49.2 °F 27.6 °F 30.22 in West 6.0 mph 3.2 mph 43 % 0.00 in 647.00 W/m2 OVC
12:39 49.3 °F 26.0 °F 30.22 in West 5.8 mph 3.9 mph 40 % 0.00 in 645.00 W/m2 OVC
12:44 49.4 °F 27.2 °F 30.22 in WSW 4.0 mph 2.8 mph 42 % 0.00 in 643.00 W/m2 OVC
12:49 49.6 °F 27.4 °F 30.22 in WSW 5.8 mph 3.3 mph 42 % 0.00 in 589.00 W/m2 OVC
12:54 50.0 °F 26.0 °F 30.22 in WSW 3.5 mph 2.9 mph 39 % 0.00 in 628.00 W/m2 OVC
12:59 50.2 °F 26.2 °F 30.22 in WSW 3.5 mph 2.0 mph 39 % 0.00 in 552.00 W/m2 OVC
13:04 50.3 °F 26.3 °F 30.22 in SW 2.3 mph 1.3 mph 39 % 0.00 in 524.00 W/m2 OVC
13:09 50.4 °F 25.7 °F 30.21 in West 6.9 mph 4.0 mph 38 % 0.00 in 584.00 W/m2 OVC
13:14 50.5 °F 27.0 °F 30.22 in WSW 3.5 mph 2.3 mph 40 % 0.00 in 599.00 W/m2 OVC
13:19 50.7 °F 27.2 °F 30.22 in NW 3.5 mph 3.0 mph 40 % 0.00 in 599.00 W/m2 OVC
13:24 50.8 °F 26.7 °F 30.22 in West 3.5 mph 1.1 mph 39 % 0.00 in 592.00 W/m2 OVC
13:29 51.0 °F 26.9 °F 30.22 in WSW 6.9 mph 5.3 mph 39 % 0.00 in 580.00 W/m2 OVC
13:34 51.0 °F 27.5 °F 30.22 in WSW 7.0 mph 3.7 mph 40 % 0.00 in 575.00 W/m2 OVC
13:39 51.3 °F 25.9 °F 30.21 in WSW 3.5 mph 2.9 mph 37 % 0.00 in 517.00 W/m2 OVC
13:44 51.6 °F 26.8 °F 30.21 in WNW 5.8 mph 3.7 mph 38 % 0.00 in 545.00 W/m2 OVC
13:49 51.7 °F 26.2 °F 30.21 in West 3.5 mph 3.1 mph 37 % 0.00 in 480.00 W/m2 OVC
13:55 51.5 °F 26.1 °F 30.21 in WSW 4.6 mph 2.5 mph 37 % 0.00 in 555.00 W/m2 OVC
13:59 51.7 °F 26.2 °F 30.21 in West 3.5 mph 1.8 mph 37 % 0.00 in 545.00 W/m2 OVC
14:04 52.1 °F 27.2 °F 30.21 in West 3.5 mph 2.9 mph 38 % 0.00 in 536.00 W/m2 OVC
14:09 52.2 °F 26.0 °F 30.21 in West 5.8 mph 3.4 mph 36 % 0.00 in 526.00 W/m2 OVC
14:14 52.1 °F 26.6 °F 30.21 in NW 5.8 mph 3.2 mph 37 % 0.00 in 508.00 W/m2 OVC
14:19 52.2 °F 27.3 °F 30.21 in West 6.9 mph 4.3 mph 38 % 0.00 in 497.00 W/m2 OVC
14:24 52.3 °F 26.8 °F 30.20 in WSW 3.5 mph 1.9 mph 37 % 0.00 in 482.00 W/m2 OVC
14:29 52.4 °F 27.5 °F 30.20 in South 3.5 mph 0.9 mph 38 % 0.00 in 476.00 W/m2 OVC
14:34 52.6 °F 28.3 °F 30.20 in West 3.5 mph 2.1 mph 39 % 0.00 in 446.00 W/m2 OVC
14:39 52.6 °F 27.7 °F 30.21 in WSW 3.5 mph 2.8 mph 38 % 0.00 in 427.00 W/m2 OVC
14:44 52.7 °F 27.8 °F 30.21 in West 5.8 mph 2.3 mph 38 % 0.00 in 436.00 W/m2 OVC
14:49 52.8 °F 27.9 °F 30.20 in West 4.0 mph 1.8 mph 38 % 0.00 in 420.00 W/m2 OVC
14:54 53.0 °F 27.4 °F 30.21 in West 6.0 mph 4.0 mph 37 % 0.00 in 404.00 W/m2 OVC
14:59 52.9 °F 27.3 °F 30.21 in West 3.5 mph 2.3 mph 37 % 0.00 in 390.00 W/m2 OVC
15:04 52.8 °F 26.6 °F 30.21 in WSW 5.8 mph 3.2 mph 36 % 0.00 in 376.00 W/m2 OVC
15:09 52.7 °F 27.1 °F 30.21 in West 3.5 mph 2.3 mph 37 % 0.00 in 362.00 W/m2 OVC
15:14 52.8 °F 27.9 °F 30.21 in West 3.5 mph 3.2 mph 38 % 0.00 in 350.00 W/m2 OVC
15:19 52.8 °F 26.6 °F 30.21 in West 4.6 mph 2.9 mph 36 % 0.00 in 334.00 W/m2 OVC
15:24 52.9 °F 26.6 °F 30.21 in WSW 3.5 mph 3.6 mph 36 % 0.00 in 316.00 W/m2 OVC
15:29 52.9 °F 26.6 °F 30.21 in West 4.0 mph 2.8 mph 36 % 0.00 in 302.00 W/m2 OVC
15:34 52.8 °F 27.9 °F 30.21 in WSW 3.5 mph   38 % 0.00 in 220.00 W/m2 OVC
15:39 52.7 °F 26.5 °F 30.20 in West 3.5 mph 2.1 mph 36 % 0.00 in 221.00 W/m2 OVC
15:44 52.6 °F 27.0 °F 30.20 in West 3.5 mph 2.4 mph 37 % 0.00 in 39.00 W/m2 OVC
15:49 52.3 °F 26.8 °F 30.20 in WNW 3.5 mph 1.5 mph 37 % 0.00 in 37.00 W/m2 OVC
15:54 52.0 °F 25.8 °F 30.20 in WNW 5.8 mph 3.2 mph 36 % 0.00 in 35.00 W/m2 OVC
15:59 51.7 °F 26.9 °F 30.20 in West 2.3 mph 0.5 mph 38 % 0.00 in 33.00 W/m2 OVC
16:04 51.4 °F 25.3 °F 30.20 in NW 3.5 mph 1.4 mph 36 % 0.00 in 30.00 W/m2 OVC
16:09 51.3 °F 27.8 °F 30.19 in West 3.5 mph 0.6 mph 40 % 0.00 in 30.00 W/m2 OVC
16:14 51.1 °F 25.7 °F 30.19 in WNW 3.5 mph 2.2 mph 37 % 0.00 in 33.00 W/m2 OVC
16:19 50.9 °F 26.2 °F 30.19 in WNW 3.5 mph 1.8 mph 38 % 0.00 in 77.00 W/m2 OVC
16:24 50.9 °F 26.2 °F 30.19 in WSW 3.5 mph 1.7 mph 38 % 0.00 in 93.00 W/m2 OVC
16:29 51.0 °F 26.3 °F 30.20 in WSW 3.5 mph 1.4 mph 38 % 0.00 in 72.00 W/m2 OVC
16:34 51.1 °F 27.0 °F 30.19 in WSW 2.3 mph 0.6 mph 39 % 0.00 in 30.00 W/m2 OVC
16:39 51.1 °F 27.0 °F 30.19 in WSW 2.3 mph 1.2 mph 39 % 0.00 in 21.00 W/m2 OVC
16:44 51.0 °F 28.7 °F 30.18 in Calm     42 % 0.00 in 16.00 W/m2 OVC
16:49 50.8 °F 27.3 °F 30.18 in WSW 1.2 mph   40 % 0.00 in 18.00 W/m2 OVC
16:54 50.6 °F 27.1 °F 30.18 in Calm     40 % 0.00 in 16.00 W/m2 OVC
16:59 50.4 °F 27.0 °F 30.18 in Calm     40 % 0.00 in 14.00 W/m2 OVC
17:04 50.2 °F 28.0 °F 30.18 in Calm     42 % 0.00 in 12.00 W/m2 OVC
17:09 50.1 °F 27.9 °F 30.18 in Calm     42 % 0.00 in 11.00 W/m2 OVC
17:14 49.9 °F 28.8 °F 30.17 in Calm     44 % 0.00 in 7.00 W/m2 OVC
17:19 49.7 °F 27.5 °F 30.17 in Calm     42 % 0.00 in 0.00 W/m2 OVC
17:24 49.5 °F 27.3 °F 30.17 in Calm     42 % 0.00 in 0.00 W/m2 OVC
17:29 49.3 °F 27.2 °F 30.17 in Calm     42 % 0.00 in 0.00 W/m2 OVC
17:34 49.0 °F 26.3 °F 30.17 in Calm     41 % 0.00 in 0.00 W/m2 OVC
17:39 48.8 °F 26.1 °F 30.16 in Calm     41 % 0.00 in 0.00 W/m2 OVC
17:44 48.5 °F 25.8 °F 30.16 in Calm     41 % 0.00 in 0.00 W/m2 OVC
17:49 48.2 °F 25.6 °F 30.16 in Calm     41 % 0.00 in 0.00 W/m2 OVC
17:54 47.9 °F 25.9 °F 30.16 in Calm     42 % 0.00 in 0.00 W/m2 OVC
17:59 47.6 °F 26.2 °F 30.16 in Calm     43 % 0.00 in 0.00 W/m2 OVC
18:04 47.4 °F 27.1 °F 30.17 in Calm     45 % 0.00 in 0.00 W/m2 OVC
18:09 47.1 °F 27.9 °F 30.17 in Calm     47 % 0.00 in 0.00 W/m2 OVC
18:14 46.9 °F 26.6 °F 30.17 in SW 2.3 mph 1.3 mph 45 % 0.00 in 0.00 W/m2 OVC
18:19 46.7 °F 25.9 °F 30.17 in SW 2.3 mph 0.8 mph 44 % 0.00 in 0.00 W/m2 OVC
18:24 46.6 °F 26.4 °F 30.16 in SW 2.3 mph 0.6 mph 45 % 0.00 in 0.00 W/m2 OVC
18:29 46.5 °F 26.3 °F 30.16 in Calm     45 % 0.00 in 0.00 W/m2 OVC
18:34 46.4 °F 29.2 °F 30.16 in SW 3.5 mph 2.0 mph 51 % 0.00 in 0.00 W/m2 OVC
18:39 46.0 °F 28.4 °F 30.16 in SW 2.3 mph 1.3 mph 50 % 0.00 in 0.00 W/m2 OVC
18:44 45.7 °F 28.6 °F 30.17 in SW 2.3 mph 0.9 mph 51 % 0.00 in 0.00 W/m2 OVC
18:49 45.4 °F 30.2 °F 30.17 in Calm     55 % 0.00 in 0.00 W/m2 OVC
18:54 45.1 °F 29.4 °F 30.17 in Calm     54 % 0.00 in 0.00 W/m2 OVC
18:59 44.7 °F 28.1 °F 30.17 in Calm     52 % 0.00 in 0.00 W/m2 OVC
19:04 44.5 °F 28.9 °F 30.17 in Calm     54 % 0.00 in 0.00 W/m2 OVC
19:09 44.2 °F 29.0 °F 30.17 in Calm     55 % 0.00 in 0.00 W/m2 OVC
19:14 43.8 °F 28.7 °F 30.17 in Calm     55 % 0.00 in 0.00 W/m2 OVC
19:19 43.5 °F 29.7 °F 30.17 in South 3.5 mph 2.1 mph 58 % 0.00 in 0.00 W/m2 OVC
19:24 43.1 °F 30.1 °F 30.16 in South 3.5 mph 1.8 mph 60 % 0.00 in 0.00 W/m2 OVC
19:29 42.8 °F 30.3 °F 30.17 in South 2.3 mph 1.4 mph 61 % 0.00 in 0.00 W/m2 OVC
19:34 42.4 °F 30.3 °F 30.17 in South 3.5 mph 2.0 mph 62 % 0.00 in 0.00 W/m2 OVC
19:39 42.0 °F 29.9 °F 30.17 in South 2.3 mph 1.6 mph 62 % 0.00 in 0.00 W/m2 OVC
19:44 41.6 °F 30.3 °F 30.16 in South 3.5 mph 1.4 mph 64 % 0.00 in 0.00 W/m2 OVC
19:49 41.4 °F 29.7 °F 30.16 in South 2.3 mph 1.4 mph 63 % 0.00 in 0.00 W/m2 OVC
19:54 41.2 °F 29.5 °F 30.16 in South 2.3 mph 1.1 mph 63 % 0.00 in 0.00 W/m2 OVC
19:59 40.9 °F 29.3 °F 30.16 in South 2.3 mph 1.8 mph 63 % 0.00 in 0.00 W/m2 OVC
20:04 40.8 °F 29.6 °F 30.16 in South 2.3 mph 0.4 mph 64 % 0.00 in 0.00 W/m2 OVC
20:09 40.7 °F 28.7 °F 30.16 in SSE 3.5 mph 1.7 mph 62 % 0.00 in 0.00 W/m2 OVC
20:14 40.7 °F 28.7 °F 30.16 in SE 3.5 mph 1.8 mph 62 % 0.00 in 0.00 W/m2 OVC
20:19 40.7 °F 28.3 °F 30.15 in SE 2.3 mph 1.5 mph 61 % 0.00 in 0.00 W/m2 OVC
20:24 40.8 °F 28.4 °F 30.14 in SE 3.5 mph 1.2 mph 61 % 0.00 in 0.00 W/m2 OVC
20:29 40.8 °F 28.8 °F 30.14 in SE 2.3 mph 1.2 mph 62 % 0.00 in 0.00 W/m2 OVC
20:34 40.8 °F 28.4 °F 30.15 in SE 2.3 mph 1.8 mph 61 % 0.00 in 0.00 W/m2 OVC
20:39 40.8 °F 28.4 °F 30.15 in SE 3.5 mph 1.8 mph 61 % 0.00 in 0.00 W/m2 OVC
20:44 40.9 °F 28.5 °F 30.15 in SE 2.3 mph 1.5 mph 61 % 0.00 in 0.00 W/m2 OVC
20:49 40.9 °F 28.5 °F 30.15 in SE 3.5 mph 1.8 mph 61 % 0.00 in 0.00 W/m2 OVC
20:54 40.9 °F 30.0 °F 30.15 in SE 2.3 mph 1.3 mph 65 % 0.00 in 0.00 W/m2 OVC
20:59 40.5 °F 30.0 °F 30.15 in ESE 2.3 mph 1.9 mph 66 % 0.00 in 0.00 W/m2 OVC
21:04 40.1 °F 29.6 °F 30.14 in ESE 2.3 mph 0.2 mph 66 % 0.00 in 0.00 W/m2 OVC
21:09 39.7 °F 30.0 °F 30.15 in Calm     68 % 0.00 in 0.00 W/m2 OVC
21:14 39.3 °F 30.3 °F 30.16 in ESE 2.3 mph 1.6 mph 70 % 0.00 in 0.00 W/m2 OVC
21:19 39.0 °F 30.4 °F 30.16 in Calm     71 % 0.00 in 0.00 W/m2 OVC
21:24 38.7 °F 30.1 °F 30.16 in Calm     71 % 0.00 in 0.00 W/m2 OVC
21:29 38.4 °F 30.5 °F 30.16 in Calm     73 % 0.00 in 0.00 W/m2 OVC
21:34 38.1 °F 30.2 °F 30.16 in ESE 1.2 mph 1.1 mph 73 % 0.00 in 0.00 W/m2 OVC
21:39 38.0 °F 29.8 °F 30.15 in ESE 2.3 mph 1.1 mph 72 % 0.00 in 0.00 W/m2 OVC
21:45 38.0 °F 29.8 °F 30.15 in ESE 2.3 mph 1.5 mph 72 % 0.00 in 0.00 W/m2 OVC
21:49 38.1 °F 29.9 °F 30.15 in ESE 2.3 mph 1.3 mph 72 % 0.00 in 0.00 W/m2 OVC
21:54 37.9 °F 30.4 °F 30.15 in ESE 3.5 mph 2.0 mph 74 % 0.00 in 0.00 W/m2 OVC
21:59 37.7 °F 30.2 °F 30.15 in ESE 2.3 mph 1.4 mph 74 % 0.00 in 0.00 W/m2 OVC
22:04 37.5 °F 30.3 °F 30.14 in ESE 3.5 mph 1.8 mph 75 % 0.00 in 0.00 W/m2 OVC
22:09 37.3 °F 30.4 °F 30.14 in ESE 2.3 mph 1.7 mph 76 % 0.00 in 0.00 W/m2 OVC
22:14 37.1 °F 30.6 °F 30.14 in ESE 2.3 mph 1.0 mph 77 % 0.00 in 0.00 W/m2 OVC
22:19 36.8 °F 30.3 °F 30.14 in ESE 3.5 mph 2.1 mph 77 % 0.00 in 0.00 W/m2 OVC
22:24 36.6 °F 30.1 °F 30.14 in ESE 2.3 mph 1.5 mph 77 % 0.00 in 0.00 W/m2 OVC
22:29 36.7 °F 29.8 °F 30.14 in ESE 2.3 mph 1.8 mph 76 % 0.00 in 0.00 W/m2 OVC
22:34 36.8 °F 29.6 °F 30.14 in ESE 3.5 mph 1.6 mph 75 % 0.00 in 0.00 W/m2 OVC
22:39 36.9 °F 30.4 °F 30.14 in Calm     77 % 0.00 in 0.00 W/m2 OVC
22:44 36.9 °F 29.4 °F 30.14 in ESE 3.5 mph 2.0 mph 74 % 0.00 in 0.00 W/m2 OVC
22:49 37.1 °F 29.6 °F 30.14 in ESE 3.5 mph 1.6 mph 74 % 0.00 in 0.00 W/m2 OVC
22:54 37.1 °F 29.9 °F 30.14 in ESE 2.3 mph 1.4 mph 75 % 0.00 in 0.00 W/m2 OVC
22:59 37.1 °F 29.2 °F 30.14 in ESE 3.5 mph 2.0 mph 73 % 0.00 in 0.00 W/m2 OVC
23:04 37.2 °F 29.7 °F 30.14 in ESE 2.3 mph 1.5 mph 74 % 0.00 in 0.00 W/m2 OVC
23:09 37.1 °F 29.9 °F 30.14 in Calm     75 % 0.00 in 0.00 W/m2 OVC
23:14 36.7 °F 29.8 °F 30.13 in Calm     76 % 0.00 in 0.00 W/m2 OVC
23:19 36.4 °F 29.9 °F 30.13 in ESE 3.5 mph 1.8 mph 77 % 0.00 in 0.00 W/m2 OVC
23:24 36.3 °F 29.5 °F 30.13 in ESE 3.5 mph 2.3 mph 76 % 0.00 in 0.00 W/m2 OVC
23:29 36.4 °F 29.6 °F 30.13 in ESE 3.5 mph 1.4 mph 76 % 0.00 in 0.00 W/m2 OVC
23:34 36.4 °F 29.6 °F 30.13 in Calm     76 % 0.00 in 0.00 W/m2 OVC
23:39 36.4 °F 29.6 °F 30.12 in Calm     76 % 0.00 in 0.00 W/m2 OVC
23:44 36.5 °F 29.7 °F 30.13 in SE 3.5 mph 2.2 mph 76 % 0.00 in 0.00 W/m2 OVC
23:49 36.5 °F 29.3 °F 30.12 in ESE 3.5 mph 2.2 mph 75 % 0.00 in 0.00 W/m2 OVC
23:54 36.8 °F 29.3 °F 30.12 in ESE 2.3 mph 1.8 mph 74 % 0.00 in 0.00 W/m2 OVC
23:59 36.8 °F 29.6 °F 30.13 in ESE 3.5 mph 1.9 mph 75 % 0.00 in 0.00 W/m2 OVC
Murfreesboro Weather Live
Compliments of Weather Underground - 2.25 mb